createdAt,value
2022-09-14T00:01:50.930Z,15.55
2022-09-14T00:04:18.341Z,18.42
2022-09-14T00:06:45.482Z,48.42
2022-09-14T00:09:17.233Z,24.80
2022-09-14T00:11:43.632Z,24.80
2022-09-14T00:14:10.035Z,10.35
2022-09-14T00:16:37.877Z,11.05
2022-09-14T00:19:06.311Z,16.85
2022-09-14T00:21:33.880Z,29.58
2022-09-14T00:24:00.250Z,29.65
2022-09-14T00:26:26.724Z,16.33
2022-09-14T00:28:54.222Z,20.20
2022-09-14T00:31:21.262Z,22.88
2022-09-14T00:33:48.417Z,15.35
2022-09-14T00:36:16.471Z,15.23
2022-09-14T00:38:42.920Z,12.35
2022-09-14T00:41:11.795Z,19.50
2022-09-14T00:44:10.697Z,19.40
2022-09-14T00:46:44.780Z,17.35
2022-09-14T00:49:16.582Z,13.85
2022-09-14T00:51:49.235Z,16.13
2022-09-14T00:54:15.690Z,24.02
2022-09-14T00:56:42.187Z,32.65
2022-09-14T00:59:20.311Z,41.58
2022-09-14T01:01:47.014Z,21.08
2022-09-14T01:04:13.594Z,14.07
2022-09-14T01:06:51.887Z,11.25
2022-09-14T01:09:30.617Z,10.38
2022-09-14T01:12:19.876Z,22.83
2022-09-14T01:14:50.509Z,23.85
2022-09-14T01:17:19.962Z,20.52
2022-09-14T01:19:57.454Z,15.02
2022-09-14T01:22:26.138Z,20.58
2022-09-14T01:24:55.871Z,12.57
2022-09-14T01:27:22.427Z,25.63
2022-09-14T01:30:01.899Z,12.20
2022-09-14T01:32:34.517Z,15.20
2022-09-14T01:35:07.776Z,27.17
2022-09-14T01:37:48.816Z,30.13
2022-09-14T01:40:22.231Z,14.60
2022-09-14T01:42:51.798Z,13.45
2022-09-14T01:45:19.562Z,9.05
2022-09-14T01:47:49.062Z,12.38
2022-09-14T01:50:21.738Z,9.70
2022-09-14T01:52:58.245Z,8.20
2022-09-14T01:55:27.411Z,12.95
2022-09-14T01:57:57.297Z,15.95
2022-09-14T02:00:23.869Z,17.83
2022-09-14T02:02:55.112Z,21.08
2022-09-14T02:05:28.687Z,17.27
2022-09-14T02:07:55.318Z,21.17
2022-09-14T02:10:22.733Z,34.95
2022-09-14T02:12:49.137Z,33.22
2022-09-14T02:15:15.666Z,22.35
2022-09-14T02:17:43.221Z,33.65
2022-09-14T02:20:14.228Z,17.73
2022-09-14T02:22:40.715Z,15.00
2022-09-14T02:25:07.495Z,23.40
2022-09-14T02:27:34.053Z,15.45
2022-09-14T02:30:01.669Z,16.33
2022-09-14T02:32:37.638Z,13.55
2022-09-14T02:35:19.994Z,43.22
2022-09-14T02:37:59.655Z,25.02
2022-09-14T02:40:34.501Z,45.72
2022-09-14T02:43:20.495Z,52.65
2022-09-14T02:45:46.904Z,53.65
2022-09-14T02:48:32.162Z,34.65
2022-09-14T02:51:20.030Z,17.75
2022-09-14T02:53:51.516Z,35.40
2022-09-14T02:56:19.247Z,21.33
2022-09-14T02:58:46.017Z,21.20
2022-09-14T03:01:13.915Z,20.90
2022-09-14T03:03:40.543Z,16.25
2022-09-14T03:06:07.189Z,17.58
2022-09-14T03:08:33.670Z,19.48
2022-09-14T03:11:00.091Z,20.73
2022-09-14T03:13:26.723Z,36.10
2022-09-14T03:15:53.565Z,22.60
2022-09-14T03:18:20.440Z,47.85
2022-09-14T03:20:46.898Z,19.15
2022-09-14T03:23:13.780Z,46.67
2022-09-14T03:25:43.889Z,50.22
2022-09-14T03:28:11.170Z,34.58
2022-09-14T03:30:37.804Z,63.88
2022-09-14T03:33:04.306Z,56.30
2022-09-14T03:35:31.437Z,29.35
2022-09-14T03:37:59.349Z,25.33
2022-09-14T03:40:26.160Z,20.38
2022-09-14T03:42:52.782Z,24.40
2022-09-14T03:45:19.880Z,21.80
2022-09-14T03:47:46.907Z,33.20
2022-09-14T03:50:14.511Z,32.60
2022-09-14T03:52:40.947Z,30.33
2022-09-14T03:55:08.079Z,28.55
2022-09-14T03:57:34.486Z,52.10
2022-09-14T04:00:00.978Z,36.33
2022-09-14T04:02:28.492Z,68.85
2022-09-14T04:04:54.928Z,51.58
2022-09-14T04:07:21.387Z,41.58
2022-09-14T04:09:47.785Z,66.93
2022-09-14T04:12:14.206Z,54.97
2022-09-14T04:14:40.683Z,38.80
2022-09-14T04:17:07.126Z,42.00
2022-09-14T04:19:34.288Z,56.80
2022-09-14T04:22:00.696Z,45.53
2022-09-14T04:24:30.407Z,36.03
2022-09-14T04:26:57.276Z,87.38
2022-09-14T04:29:23.660Z,97.60
2022-09-14T04:31:50.072Z,74.28
2022-09-14T04:34:16.589Z,37.90
2022-09-14T04:36:43.032Z,46.97
2022-09-14T04:39:10.420Z,51.55
2022-09-14T04:41:36.859Z,59.97
2022-09-14T04:44:03.372Z,63.53
2022-09-14T04:46:31.200Z,39.47
2022-09-14T04:48:58.326Z,104.88
2022-09-14T04:51:26.472Z,51.58
2022-09-14T04:53:53.563Z,82.25
2022-09-14T04:56:22.267Z,62.58
2022-09-14T04:58:51.582Z,80.63
2022-09-14T05:01:25.847Z,109.50
2022-09-14T05:03:52.935Z,57.30
2022-09-14T05:06:22.205Z,60.08
2022-09-14T05:08:49.056Z,94.80
2022-09-14T05:11:17.223Z,123.20
2022-09-14T05:13:48.934Z,62.47
2022-09-14T05:16:23.672Z,86.38
2022-09-14T05:18:50.921Z,80.03
2022-09-14T05:21:18.392Z,91.63
2022-09-14T05:23:44.829Z,44.83
2022-09-14T05:26:11.296Z,39.45
2022-09-14T05:28:37.938Z,77.03
2022-09-14T05:31:05.909Z,50.90
2022-09-14T05:33:32.981Z,56.75
2022-09-14T05:36:00.239Z,77.15
2022-09-14T05:38:27.915Z,98.30
2022-09-14T05:40:55.111Z,53.75
2022-09-14T05:43:22.665Z,133.20
2022-09-14T05:45:49.629Z,108.13
2022-09-14T05:48:16.091Z,46.47
2022-09-14T05:50:42.525Z,37.50
2022-09-14T05:53:08.990Z,80.40
2022-09-14T05:55:35.431Z,69.80
2022-09-14T05:58:01.847Z,68.30
2022-09-14T06:00:29.464Z,86.60
2022-09-14T06:02:55.948Z,47.35
2022-09-14T06:05:22.832Z,61.70
2022-09-14T06:07:53.000Z,45.90
2022-09-14T06:10:19.999Z,39.47
2022-09-14T06:12:46.615Z,31.60
2022-09-14T06:15:13.186Z,27.38
2022-09-14T06:17:39.816Z,78.32
2022-09-14T06:20:09.229Z,39.72
2022-09-14T06:22:35.850Z,102.40
2022-09-14T06:25:02.331Z,36.30
2022-09-14T06:27:28.737Z,78.57
2022-09-14T06:29:55.200Z,38.58
2022-09-14T06:32:23.245Z,46.10
2022-09-14T06:34:49.706Z,27.38
2022-09-14T06:37:16.189Z,56.42
2022-09-14T06:39:42.666Z,24.23
2022-09-14T06:42:09.230Z,36.28
2022-09-14T06:44:38.764Z,29.90
2022-09-14T06:47:05.279Z,39.58
2022-09-14T06:49:31.701Z,41.45
2022-09-14T06:51:58.226Z,29.05
2022-09-14T06:54:25.490Z,20.52
2022-09-14T06:56:52.019Z,53.33
2022-09-14T06:59:18.829Z,18.88
2022-09-14T07:01:45.733Z,22.15
2022-09-14T07:04:12.717Z,34.30
2022-09-14T07:06:40.549Z,27.45
2022-09-14T07:09:07.198Z,43.50
2022-09-14T07:11:33.977Z,20.33
2022-09-14T07:14:01.890Z,55.80
2022-09-14T07:16:29.541Z,48.42
2022-09-14T07:18:56.801Z,41.63
2022-09-14T07:21:23.482Z,79.05
2022-09-14T07:23:50.072Z,16.67
2022-09-14T07:26:20.942Z,15.27
2022-09-14T07:28:49.144Z,44.63
2022-09-14T07:31:21.379Z,18.90
2022-09-14T07:33:48.258Z,18.23
2022-09-14T07:36:15.040Z,36.50
2022-09-14T07:38:52.224Z,16.15
2022-09-14T07:41:23.005Z,16.90
2022-09-14T07:43:50.650Z,26.85
2022-09-14T07:46:17.636Z,42.28
2022-09-14T07:48:44.298Z,11.32
2022-09-14T07:51:11.287Z,38.53
2022-09-14T07:53:45.635Z,41.83
2022-09-14T07:56:13.238Z,52.55
2022-09-14T07:58:40.128Z,33.47
2022-09-14T08:01:11.979Z,43.47
2022-09-14T08:03:42.081Z,40.40
2022-09-14T08:06:14.191Z,19.85
2022-09-14T08:08:41.967Z,32.92
2022-09-14T08:11:16.046Z,24.77
2022-09-14T08:13:46.101Z,78.28
2022-09-14T08:16:13.406Z,91.07
2022-09-14T08:18:39.926Z,41.00
2022-09-14T08:21:07.893Z,41.92
2022-09-14T08:23:34.967Z,54.35
2022-09-14T08:26:11.323Z,67.43
2022-09-14T08:28:38.592Z,53.05
2022-09-14T08:31:05.971Z,34.45
2022-09-14T08:33:33.526Z,34.30
2022-09-14T08:36:00.252Z,57.38
2022-09-14T08:38:26.745Z,25.65
2022-09-14T08:40:53.193Z,47.95
2022-09-14T08:43:21.255Z,42.05
2022-09-14T08:45:48.556Z,17.75
2022-09-14T08:48:26.863Z,96.43
2022-09-14T08:50:53.858Z,18.50
2022-09-14T08:53:24.471Z,60.15
2022-09-14T08:55:55.505Z,75.45
2022-09-14T08:58:21.852Z,41.10
2022-09-14T09:00:54.670Z,32.58
2022-09-14T09:03:34.135Z,58.88
2022-09-14T09:06:03.620Z,31.45
2022-09-14T09:08:48.854Z,18.73
2022-09-14T09:11:18.380Z,23.70
2022-09-14T09:13:45.944Z,21.10
2022-09-14T09:16:13.191Z,40.67
2022-09-14T09:18:46.909Z,75.43
2022-09-14T09:21:25.275Z,65.63
2022-09-14T09:23:53.205Z,68.50
2022-09-14T09:26:22.614Z,15.63
2022-09-14T09:28:49.905Z,61.45
2022-09-14T09:31:17.653Z,51.10
2022-09-14T09:34:06.952Z,44.28
2022-09-14T09:36:35.389Z,48.80
2022-09-14T09:39:05.174Z,32.70
2022-09-14T09:41:37.627Z,23.85
2022-09-14T09:44:07.027Z,37.17
2022-09-14T09:46:34.896Z,22.80
2022-09-14T09:49:14.359Z,20.42
2022-09-14T09:51:40.980Z,39.85
2022-09-14T09:54:13.472Z,61.92
2022-09-14T09:56:42.669Z,25.45
2022-09-14T09:59:21.940Z,67.50
2022-09-14T10:01:48.419Z,33.10
2022-09-14T10:04:19.615Z,80.75
2022-09-14T10:06:47.698Z,70.13
2022-09-14T10:09:15.488Z,68.57
2022-09-14T10:11:42.023Z,84.90
2022-09-14T10:14:25.855Z,54.30
2022-09-14T10:16:52.826Z,57.97
2022-09-14T10:19:24.503Z,40.25
2022-09-14T10:22:01.558Z,94.50
2022-09-14T10:24:27.993Z,37.25
2022-09-14T10:26:54.475Z,92.38
2022-09-14T10:29:30.547Z,94.18
2022-09-14T10:31:59.952Z,113.30
2022-09-14T10:34:26.520Z,123.85
2022-09-14T10:36:56.140Z,34.95
2022-09-14T10:39:26.444Z,96.70
2022-09-14T10:42:01.809Z,30.75
2022-09-14T10:44:40.739Z,120.25
2022-09-14T10:47:34.193Z,66.50
2022-09-14T10:50:00.551Z,79.82
2022-09-14T10:52:45.890Z,89.85
2022-09-14T10:55:24.247Z,77.93
2022-09-14T10:58:18.119Z,54.47
2022-09-14T11:00:52.700Z,55.03
2022-09-14T11:03:38.888Z,46.97
2022-09-14T11:06:16.681Z,60.63
2022-09-14T11:08:43.232Z,76.63
2022-09-14T11:11:11.521Z,105.40
2022-09-14T11:13:47.353Z,38.17
2022-09-14T11:16:26.973Z,23.20
2022-09-14T11:18:56.447Z,37.20
2022-09-14T11:21:32.191Z,41.53
2022-09-14T11:24:02.134Z,50.08
2022-09-14T11:26:33.624Z,51.65
2022-09-14T11:29:11.149Z,62.47
2022-09-14T11:31:40.754Z,59.53
2022-09-14T11:34:18.890Z,50.25
2022-09-14T11:36:57.083Z,66.70
2022-09-14T11:39:29.480Z,91.20
2022-09-14T11:41:59.672Z,14.02
2022-09-14T11:44:55.673Z,32.75
2022-09-14T11:47:22.275Z,39.28
2022-09-14T11:49:55.301Z,74.85
2022-09-14T11:52:27.076Z,71.57
2022-09-14T11:54:53.738Z,49.22
2022-09-14T11:57:22.511Z,40.67
2022-09-14T11:59:50.828Z,64.95
2022-09-14T12:02:37.589Z,41.28
2022-09-14T12:05:07.178Z,24.42
2022-09-14T12:07:39.851Z,32.28
2022-09-14T12:10:15.415Z,81.32
2022-09-14T12:12:42.901Z,43.97
2022-09-14T12:15:17.218Z,58.88
2022-09-14T12:17:45.214Z,31.02
2022-09-14T12:20:20.822Z,46.47
2022-09-14T12:22:50.286Z,37.55
2022-09-14T12:25:18.942Z,30.45
2022-09-14T12:27:47.025Z,25.08
2022-09-14T12:30:37.089Z,17.67
2022-09-14T12:33:30.326Z,71.82
2022-09-14T12:35:57.311Z,81.28
2022-09-14T12:38:29.869Z,83.72
2022-09-14T12:40:57.164Z,65.00
2022-09-14T12:43:32.729Z,34.38
2022-09-14T12:46:08.269Z,50.85
2022-09-14T12:48:55.449Z,44.80
2022-09-14T12:51:35.332Z,18.13
2022-09-14T12:54:05.045Z,37.40
2022-09-14T12:56:34.518Z,17.27
2022-09-14T12:59:19.859Z,52.10
2022-09-14T13:01:58.724Z,33.72
2022-09-14T13:04:30.003Z,39.13
2022-09-14T13:06:57.750Z,31.95
2022-09-14T13:09:25.775Z,46.45
2022-09-14T13:11:59.490Z,69.18
2022-09-14T13:14:28.215Z,31.98
2022-09-14T13:16:55.684Z,38.85
2022-09-14T13:19:30.402Z,45.78
2022-09-14T13:21:58.496Z,53.20
2022-09-14T13:24:34.888Z,52.08
2022-09-14T13:27:02.356Z,73.18
2022-09-14T13:29:29.508Z,60.90
2022-09-14T13:32:02.410Z,90.30
2022-09-14T13:34:31.496Z,38.33
2022-09-14T13:36:58.363Z,61.50
2022-09-14T13:39:35.758Z,46.03
2022-09-14T13:42:02.693Z,61.47
2022-09-14T13:44:33.686Z,34.45
2022-09-14T13:47:02.289Z,83.03
2022-09-14T13:49:28.922Z,66.22
2022-09-14T13:52:14.093Z,105.72
2022-09-14T13:54:40.526Z,55.75
2022-09-14T13:57:14.573Z,18.77
2022-09-14T13:59:59.829Z,84.25
2022-09-14T14:02:27.623Z,99.20
2022-09-14T14:04:54.201Z,98.18
2022-09-14T14:07:27.564Z,57.10
2022-09-14T14:09:55.221Z,93.97
2022-09-14T14:12:24.760Z,68.50
2022-09-14T14:14:55.346Z,98.70
2022-09-14T14:17:30.309Z,79.20
2022-09-14T14:19:58.021Z,63.22
2022-09-14T14:22:24.448Z,105.93
2022-09-14T14:27:40.089Z,65.50
2022-09-14T14:30:33.179Z,75.40
2022-09-14T14:33:00.708Z,88.78
2022-09-14T14:35:28.609Z,66.22
2022-09-14T14:37:55.515Z,124.32
2022-09-14T14:40:21.978Z,113.65
2022-09-14T14:42:49.114Z,64.90
2022-09-14T14:45:26.142Z,50.55
2022-09-14T14:47:53.504Z,67.13
2022-09-14T14:50:24.667Z,53.92
2022-09-14T14:52:51.714Z,69.63
2022-09-14T14:55:20.300Z,80.20
2022-09-14T14:57:47.595Z,81.78
2022-09-14T15:00:15.856Z,87.90
2022-09-14T15:02:42.659Z,26.98
2022-09-14T15:05:09.177Z,36.88
2022-09-14T15:07:37.725Z,46.25
2022-09-14T15:10:04.981Z,52.28
2022-09-14T15:12:31.838Z,33.53
2022-09-14T15:14:58.584Z,31.65
2022-09-14T15:17:25.011Z,35.38
2022-09-14T15:19:52.467Z,37.22
2022-09-14T15:22:18.949Z,82.75
2022-09-14T15:24:45.490Z,37.25
2022-09-14T15:27:12.077Z,53.20
2022-09-14T15:29:38.461Z,63.65
2022-09-14T15:32:05.190Z,70.47
2022-09-14T15:34:31.669Z,22.17
2022-09-14T15:36:58.884Z,18.05
2022-09-14T15:39:26.281Z,24.25
2022-09-14T15:41:53.118Z,29.17
2022-09-14T15:44:19.661Z,52.63
2022-09-14T15:46:46.871Z,46.05
2022-09-14T15:49:14.543Z,41.05
2022-09-14T15:51:45.151Z,66.72
2022-09-14T15:54:12.085Z,25.50
2022-09-14T15:56:38.585Z,23.63
2022-09-14T15:59:05.044Z,20.92
2022-09-14T16:01:34.288Z,40.60
2022-09-14T16:04:01.620Z,71.70
2022-09-14T16:06:28.524Z,20.60
2022-09-14T16:08:55.456Z,36.40
2022-09-14T16:11:21.872Z,62.20
2022-09-14T16:13:49.811Z,58.53
2022-09-14T16:16:17.234Z,77.03
2022-09-14T16:18:43.816Z,49.72
2022-09-14T16:21:11.521Z,31.52
2022-09-14T16:23:39.667Z,50.47
2022-09-14T16:26:10.411Z,35.28
2022-09-14T16:28:37.709Z,74.55
2022-09-14T16:31:08.422Z,17.10
2022-09-14T16:33:48.084Z,85.57
2022-09-14T16:36:18.020Z,61.40
2022-09-14T16:38:44.469Z,46.58
2022-09-14T16:41:11.745Z,46.22
2022-09-14T16:43:38.259Z,23.25
2022-09-14T16:46:06.237Z,17.15
2022-09-14T16:48:33.349Z,61.42
2022-09-14T16:51:02.019Z,42.45
2022-09-14T16:53:29.457Z,25.08
2022-09-14T16:56:03.275Z,28.25
2022-09-14T16:58:30.030Z,27.50
2022-09-14T17:00:56.765Z,49.78
2022-09-14T17:03:23.287Z,37.78
2022-09-14T17:05:50.046Z,20.65
2022-09-14T17:08:16.575Z,49.03
2022-09-14T17:10:43.013Z,38.72
2022-09-14T17:13:09.518Z,31.58
2022-09-14T17:15:35.927Z,36.38
2022-09-14T17:18:02.364Z,31.73
2022-09-14T17:20:28.816Z,20.42
2022-09-14T17:22:55.360Z,23.02
2022-09-14T17:25:23.433Z,37.13
2022-09-14T17:27:49.844Z,37.63
2022-09-14T17:30:16.380Z,45.05
2022-09-14T17:32:42.899Z,44.40
2022-09-14T17:35:09.653Z,29.00
2022-09-14T17:37:36.296Z,55.67
2022-09-14T17:40:02.879Z,69.35
2022-09-14T17:42:29.386Z,53.65
2022-09-14T17:44:55.870Z,50.78
2022-09-14T17:47:22.337Z,46.78
2022-09-14T17:49:48.820Z,88.32
2022-09-14T17:52:15.333Z,77.95
2022-09-14T17:54:41.983Z,139.15
2022-09-14T17:57:08.525Z,104.07
2022-09-14T17:59:34.961Z,168.20
2022-09-14T18:02:01.436Z,100.20
2022-09-14T18:04:28.006Z,60.95
2022-09-14T18:06:55.038Z,93.22
2022-09-14T18:09:22.514Z,129.20
2022-09-14T18:11:50.072Z,203.90
2022-09-14T18:14:16.720Z,214.65
2022-09-14T18:16:44.025Z,173.48
2022-09-14T18:19:10.946Z,206.82
2022-09-14T18:21:39.313Z,184.55
2022-09-14T18:24:05.897Z,139.07
2022-09-14T18:26:32.329Z,146.98
2022-09-14T18:28:59.099Z,78.35
2022-09-14T18:31:26.064Z,223.25
2022-09-14T18:33:53.813Z,116.68
2022-09-14T18:36:20.982Z,169.82
2022-09-14T18:38:48.496Z,240.90
2022-09-14T18:41:15.600Z,174.88
2022-09-14T18:43:43.489Z,148.30
2022-09-14T18:46:10.075Z,117.63
2022-09-14T18:48:36.656Z,254.50
2022-09-14T18:51:04.835Z,345.77
2022-09-14T18:53:31.469Z,183.52
2022-09-14T18:56:02.051Z,184.63
2022-09-14T18:58:28.702Z,344.05
2022-09-14T19:00:55.217Z,148.40
2022-09-14T19:03:21.757Z,137.23
2022-09-14T19:05:48.198Z,230.88
2022-09-14T19:08:14.638Z,295.00
2022-09-14T19:10:41.078Z,153.95
2022-09-14T19:13:07.809Z,175.82
2022-09-14T19:15:34.469Z,155.90
2022-09-14T19:18:00.920Z,114.10
2022-09-14T19:20:43.070Z,83.85
2022-09-14T19:23:13.786Z,177.52
2022-09-14T19:25:40.370Z,88.88
2022-09-14T19:28:07.527Z,263.40
2022-09-14T19:30:36.484Z,123.65
2022-09-14T19:33:02.993Z,184.63
2022-09-14T19:35:30.027Z,219.18
2022-09-14T19:37:57.290Z,145.30
2022-09-14T19:40:24.548Z,203.73
2022-09-14T19:42:51.373Z,233.23
2022-09-14T19:45:18.415Z,176.93
2022-09-14T19:47:44.960Z,229.10
2022-09-14T19:50:11.895Z,223.25
2022-09-14T19:52:38.435Z,187.57
2022-09-14T19:55:06.151Z,227.93
2022-09-14T19:57:32.661Z,130.88
2022-09-14T19:59:59.163Z,88.32
2022-09-14T20:02:25.893Z,152.20
2022-09-14T20:04:52.414Z,243.20
2022-09-14T20:07:19.043Z,284.45
2022-09-14T20:09:45.578Z,301.00
2022-09-14T20:12:11.975Z,291.30
2022-09-14T20:14:38.349Z,202.30
2022-09-14T20:17:04.994Z,294.13
2022-09-14T20:19:32.542Z,217.32
2022-09-14T20:21:59.007Z,130.23
2022-09-14T20:24:29.417Z,294.65
2022-09-14T20:26:56.982Z,338.95
2022-09-14T20:29:23.958Z,215.38
2022-09-14T20:31:55.676Z,89.97
2022-09-14T20:34:31.146Z,73.43
2022-09-14T20:37:05.404Z,269.90
2022-09-14T20:39:35.877Z,294.75
2022-09-14T20:42:05.213Z,182.48
2022-09-14T20:44:35.670Z,247.88
2022-09-14T20:47:05.327Z,228.30
2022-09-14T20:49:32.396Z,150.02
2022-09-14T20:52:02.903Z,169.18
2022-09-14T20:54:31.993Z,211.38
2022-09-14T20:57:05.450Z,174.68
2022-09-14T20:59:34.739Z,225.75
2022-09-14T21:02:05.729Z,139.63
2022-09-14T21:04:50.045Z,167.23
2022-09-14T21:07:19.235Z,163.02
2022-09-14T21:09:49.338Z,117.53
2022-09-14T21:12:18.643Z,135.27
2022-09-14T21:14:48.266Z,149.10
2022-09-14T21:17:24.675Z,256.90
2022-09-14T21:20:01.918Z,202.63
2022-09-14T21:22:31.586Z,182.45
2022-09-14T21:25:00.369Z,200.00
2022-09-14T21:27:26.780Z,264.20
2022-09-14T21:29:55.582Z,98.05
2022-09-14T21:32:24.867Z,176.13
2022-09-14T21:34:58.461Z,178.50
2022-09-14T21:37:26.643Z,185.60
2022-09-14T21:39:53.853Z,151.63
2022-09-14T21:42:25.831Z,223.20
2022-09-14T21:44:53.436Z,188.88
2022-09-14T21:47:25.161Z,111.95
2022-09-14T21:49:54.725Z,196.82
2022-09-14T21:52:28.541Z,148.10
2022-09-14T21:54:55.548Z,96.10
2022-09-14T21:57:32.158Z,206.23
2022-09-14T22:00:05.513Z,181.25
2022-09-14T22:02:41.693Z,106.45
2022-09-14T22:05:08.255Z,131.93
2022-09-14T22:07:37.942Z,121.10
2022-09-14T22:10:11.522Z,125.10
2022-09-14T22:12:39.700Z,173.65
2022-09-14T22:15:07.455Z,91.40
2022-09-14T22:17:33.895Z,106.70
2022-09-14T22:20:06.204Z,200.68
2022-09-14T22:22:32.614Z,176.27
2022-09-14T22:25:02.080Z,273.25
2022-09-14T22:27:36.501Z,249.63
2022-09-14T22:30:03.064Z,242.15
2022-09-14T22:32:29.484Z,238.63
2022-09-14T22:35:07.286Z,156.15
2022-09-14T22:37:36.022Z,135.38
2022-09-14T22:40:06.701Z,113.95
2022-09-14T22:42:39.127Z,251.57
2022-09-14T22:45:08.043Z,220.70
2022-09-14T22:47:37.429Z,211.00
2022-09-14T22:50:09.931Z,203.75
2022-09-14T22:53:04.389Z,205.73
2022-09-14T22:55:35.613Z,211.90
2022-09-14T22:58:07.911Z,305.25
2022-09-14T23:00:45.103Z,147.25
2022-09-14T23:03:20.718Z,138.55
2022-09-14T23:05:51.361Z,203.07
2022-09-14T23:08:42.230Z,257.90
2022-09-14T23:11:17.390Z,150.95
2022-09-14T23:13:49.069Z,173.77
2022-09-14T23:16:28.343Z,167.25
2022-09-14T23:18:59.095Z,108.57
2022-09-14T23:21:31.627Z,150.35
2022-09-14T23:24:03.707Z,204.80
2022-09-14T23:26:36.108Z,166.85
2022-09-14T23:29:10.103Z,181.75
2022-09-14T23:31:36.635Z,134.73
2022-09-14T23:34:04.853Z,276.08
2022-09-14T23:36:32.817Z,225.30
2022-09-14T23:38:59.795Z,214.85
2022-09-14T23:41:26.816Z,137.02
2022-09-14T23:43:53.597Z,270.92
2022-09-14T23:46:20.463Z,131.77
2022-09-14T23:48:56.784Z,214.77
2022-09-14T23:51:27.366Z,183.02
2022-09-14T23:53:53.781Z,147.00
2022-09-14T23:56:25.878Z,94.30
2022-09-14T23:58:52.371Z,84.13
